createdAt,value
2022-12-25T00:00:42.650Z,21.23
2022-12-25T00:01:47.181Z,21.21
2022-12-25T00:02:51.562Z,21.21
2022-12-25T00:03:56.182Z,21.2
2022-12-25T00:05:01.680Z,21.19
2022-12-25T00:06:05.936Z,21.18
2022-12-25T00:07:10.232Z,21.18
2022-12-25T00:08:14.468Z,21.19
2022-12-25T00:09:18.753Z,21.2
2022-12-25T00:10:23.038Z,21.2
2022-12-25T00:11:27.313Z,21.2
2022-12-25T00:12:31.576Z,21.18
2022-12-25T00:13:35.847Z,21.19
2022-12-25T00:14:41.476Z,21.2
2022-12-25T00:15:45.796Z,21.16
2022-12-25T00:16:50.271Z,21.2
2022-12-25T00:17:54.593Z,21.19
2022-12-25T00:18:58.939Z,21.15
2022-12-25T00:20:03.204Z,21.13
2022-12-25T00:21:07.487Z,21.11
2022-12-25T00:22:11.772Z,21.15
2022-12-25T00:23:16.006Z,21.14
2022-12-25T00:24:20.333Z,21.15
2022-12-25T00:25:24.603Z,21.2
2022-12-25T00:26:28.856Z,21.19
2022-12-25T00:27:33.128Z,21.2
2022-12-25T00:28:37.381Z,21.2
2022-12-25T00:29:41.727Z,21.19
2022-12-25T00:30:47.070Z,21.21
2022-12-25T00:31:51.403Z,21.21
2022-12-25T00:32:56.000Z,21.17
2022-12-25T00:34:00.289Z,21.21
2022-12-25T00:35:04.592Z,21.19
2022-12-25T00:36:08.888Z,21.18
2022-12-25T00:37:13.192Z,21.21
2022-12-25T00:38:17.431Z,21.21
2022-12-25T00:39:21.675Z,21.19
2022-12-25T00:40:25.924Z,21.19
2022-12-25T00:41:30.201Z,21.18
2022-12-25T00:42:34.454Z,21.19
2022-12-25T00:43:38.712Z,21.19
2022-12-25T00:44:42.966Z,21.19
2022-12-25T00:45:47.291Z,21.14
2022-12-25T00:46:51.885Z,21.15
2022-12-25T00:47:56.428Z,21.15
2022-12-25T00:49:00.728Z,21.15
2022-12-25T00:50:05.003Z,21.18
2022-12-25T00:51:09.304Z,21.17
2022-12-25T00:52:13.649Z,21.19
2022-12-25T00:53:17.925Z,21.2
2022-12-25T00:54:22.247Z,21.2
2022-12-25T00:55:26.576Z,21.18
2022-12-25T00:56:30.825Z,21.19
2022-12-25T00:57:35.069Z,21.2
2022-12-25T00:58:39.342Z,21.21
2022-12-25T00:59:43.600Z,21.2
2022-12-25T01:00:47.918Z,21.2
2022-12-25T01:01:53.113Z,21.19
2022-12-25T01:02:57.832Z,21.19
2022-12-25T01:04:02.581Z,21.18
2022-12-25T01:05:06.853Z,21.19
2022-12-25T01:06:11.132Z,21.16
2022-12-25T01:07:15.380Z,21.16
2022-12-25T01:08:19.626Z,21.15
2022-12-25T01:09:26.870Z,21.19
2022-12-25T01:10:31.206Z,21.14
2022-12-25T01:11:35.481Z,21.13
2022-12-25T01:12:39.785Z,21.15
2022-12-25T01:13:44.069Z,21.16
2022-12-25T01:14:48.335Z,21.16
2022-12-25T01:15:52.665Z,21.16
2022-12-25T01:16:57.266Z,21.18
2022-12-25T01:18:07.355Z,21.18
2022-12-25T01:19:15.994Z,21.17
2022-12-25T01:20:20.254Z,21.19
2022-12-25T01:21:24.482Z,21.18
2022-12-25T01:22:28.777Z,21.18
2022-12-25T01:23:33.032Z,21.19
2022-12-25T01:24:37.299Z,21.18
2022-12-25T01:25:41.570Z,21.18
2022-12-25T01:26:45.810Z,21.18
2022-12-25T01:27:50.090Z,21.17
2022-12-25T01:28:54.324Z,21.17
2022-12-25T01:29:58.594Z,21.16
2022-12-25T01:31:02.878Z,21.16
2022-12-25T01:32:07.212Z,21.17
2022-12-25T01:33:11.757Z,21.16
2022-12-25T01:34:16.050Z,21.14
2022-12-25T01:35:20.309Z,21.15
2022-12-25T01:36:24.581Z,21.16
2022-12-25T01:37:28.863Z,21.14
2022-12-25T01:38:33.128Z,21.16
2022-12-25T01:39:37.404Z,21.16
2022-12-25T01:40:41.659Z,21.17
2022-12-25T01:41:46.932Z,21.18
2022-12-25T01:42:51.207Z,21.17
2022-12-25T01:43:55.525Z,21.15
2022-12-25T01:44:59.761Z,21.16
2022-12-25T01:46:04.283Z,21.17
2022-12-25T01:47:08.824Z,21.14
2022-12-25T01:48:13.083Z,21.17
2022-12-25T01:49:17.349Z,21.18
2022-12-25T01:50:21.600Z,21.17
2022-12-25T01:51:25.934Z,21.17
2022-12-25T01:52:30.241Z,21.17
2022-12-25T01:53:34.501Z,21.17
2022-12-25T01:54:38.758Z,21.13
2022-12-25T01:55:42.996Z,21.14
2022-12-25T01:56:47.256Z,21.17
2022-12-25T01:57:51.560Z,21.17
2022-12-25T01:58:55.798Z,21.16
2022-12-25T02:00:00.099Z,21.17
2022-12-25T02:01:04.381Z,21.15
2022-12-25T02:02:09.169Z,21.08
2022-12-25T02:03:14.021Z,21.04
2022-12-25T02:04:18.605Z,21.01
2022-12-25T02:05:22.886Z,21.06
2022-12-25T02:06:27.141Z,21.08
2022-12-25T02:07:31.404Z,21.14
2022-12-25T02:08:35.701Z,21.17
2022-12-25T02:09:39.971Z,21.16
2022-12-25T02:10:44.267Z,21.18
2022-12-25T02:11:48.505Z,21.19
2022-12-25T02:12:52.779Z,21.18
2022-12-25T02:13:57.058Z,21.17
2022-12-25T02:15:05.586Z,21.14
2022-12-25T02:16:10.367Z,21.1
2022-12-25T02:17:14.859Z,21.07
2022-12-25T02:18:19.349Z,21.09
2022-12-25T02:19:23.635Z,21.1
2022-12-25T02:20:27.921Z,21.12
2022-12-25T02:21:32.160Z,21.11
2022-12-25T02:22:36.411Z,21.1
2022-12-25T02:23:41.851Z,21.12
2022-12-25T02:24:46.376Z,21.12
2022-12-25T02:25:50.678Z,21.12
2022-12-25T02:26:54.943Z,21.11
2022-12-25T02:27:59.244Z,21.12
2022-12-25T02:29:03.572Z,21.11
2022-12-25T02:30:07.837Z,21.1
2022-12-25T02:31:12.150Z,21.1
2022-12-25T02:32:16.521Z,21.11
2022-12-25T02:33:21.107Z,21.08
2022-12-25T02:34:25.353Z,21.07
2022-12-25T02:35:29.596Z,21.09
2022-12-25T02:36:33.903Z,21.1
2022-12-25T02:37:38.174Z,21.09
2022-12-25T02:38:42.478Z,21.07
2022-12-25T02:39:46.740Z,21.06
2022-12-25T02:40:51.033Z,21.08
2022-12-25T02:41:55.279Z,21.07
2022-12-25T02:42:59.548Z,21.06
2022-12-25T02:44:03.832Z,21.07
2022-12-25T02:45:08.106Z,21.07
2022-12-25T02:46:12.456Z,21.05
2022-12-25T02:47:16.978Z,21.05
2022-12-25T02:48:21.226Z,21.04
2022-12-25T02:49:25.489Z,21.03
2022-12-25T02:50:29.784Z,21.06
2022-12-25T02:51:34.098Z,21.05
2022-12-25T02:52:38.365Z,21.05
2022-12-25T02:53:42.618Z,21.06
2022-12-25T02:54:46.862Z,21.08
2022-12-25T02:55:51.111Z,21.08
2022-12-25T02:56:55.390Z,21.07
2022-12-25T02:57:59.692Z,21.09
2022-12-25T02:59:03.964Z,21.08
2022-12-25T03:00:08.263Z,21.05
2022-12-25T03:01:12.536Z,21.01
2022-12-25T03:02:17.250Z,21.02
2022-12-25T03:03:21.756Z,21.03
2022-12-25T03:04:28.740Z,21.03
2022-12-25T03:05:33.024Z,21.06
2022-12-25T03:06:37.276Z,21.05
2022-12-25T03:07:41.546Z,21.06
2022-12-25T03:08:45.792Z,21.09
2022-12-25T03:09:50.042Z,21.09
2022-12-25T03:10:54.327Z,21.09
2022-12-25T03:11:58.614Z,21.08
2022-12-25T03:13:02.925Z,21.07
2022-12-25T03:14:07.171Z,21.05
2022-12-25T03:15:11.459Z,21.06
2022-12-25T03:16:15.807Z,21.06
2022-12-25T03:17:20.210Z,21.06
2022-12-25T03:18:24.600Z,21.06
2022-12-25T03:19:29.148Z,21.07
2022-12-25T03:20:33.474Z,21.06
2022-12-25T03:21:37.751Z,21.07
2022-12-25T03:22:42.041Z,21.06
2022-12-25T03:23:46.337Z,21.07
2022-12-25T03:24:50.638Z,21.07
2022-12-25T03:25:54.916Z,21.05
2022-12-25T03:26:59.187Z,21.02
2022-12-25T03:28:03.445Z,21.03
2022-12-25T03:29:07.782Z,21.03
2022-12-25T03:30:12.049Z,21.04
2022-12-25T03:31:16.364Z,21.03
2022-12-25T03:32:20.976Z,21.02
2022-12-25T03:33:44.273Z,20.99
2022-12-25T03:34:49.530Z,20.98
2022-12-25T03:35:53.817Z,20.98
2022-12-25T03:36:58.227Z,21.01
2022-12-25T03:38:02.503Z,21.01
2022-12-25T03:39:06.742Z,21.01
2022-12-25T03:40:11.007Z,20.99
2022-12-25T03:41:15.283Z,21
2022-12-25T03:42:19.570Z,20.98
2022-12-25T03:43:23.853Z,20.97
2022-12-25T03:44:28.126Z,20.93
2022-12-25T03:45:32.374Z,20.91
2022-12-25T03:46:36.739Z,20.9
2022-12-25T03:47:41.220Z,20.89
2022-12-25T03:48:45.493Z,20.9
2022-12-25T03:49:49.807Z,20.91
2022-12-25T03:50:54.077Z,20.91
2022-12-25T03:51:58.361Z,20.92
2022-12-25T03:53:02.704Z,20.93
2022-12-25T03:54:07.037Z,20.93
2022-12-25T03:55:11.317Z,20.92
2022-12-25T03:56:15.560Z,20.95
2022-12-25T03:57:19.813Z,20.93
2022-12-25T03:58:24.099Z,20.92
2022-12-25T03:59:28.440Z,20.89
2022-12-25T04:00:32.692Z,20.91
2022-12-25T04:01:37.009Z,20.92
2022-12-25T04:02:41.971Z,20.93
2022-12-25T04:03:46.945Z,20.91
2022-12-25T04:04:51.442Z,20.9
2022-12-25T04:05:55.757Z,20.87
2022-12-25T04:07:00.056Z,20.84
2022-12-25T04:08:04.370Z,20.84
2022-12-25T04:09:08.615Z,20.83
2022-12-25T04:10:12.871Z,20.83
2022-12-25T04:11:17.115Z,20.88
2022-12-25T04:12:21.371Z,20.85
2022-12-25T04:13:25.688Z,20.83
2022-12-25T04:14:29.920Z,20.85
2022-12-25T04:15:34.222Z,20.85
2022-12-25T04:16:38.771Z,20.83
2022-12-25T04:17:43.020Z,20.81
2022-12-25T04:18:47.267Z,20.81
2022-12-25T04:19:53.924Z,20.85
2022-12-25T04:20:58.220Z,20.83
2022-12-25T04:22:02.477Z,20.85
2022-12-25T04:23:06.747Z,20.85
2022-12-25T04:24:11.016Z,20.83
2022-12-25T04:25:15.299Z,20.89
2022-12-25T04:26:19.546Z,20.84
2022-12-25T04:27:23.839Z,20.82
2022-12-25T04:28:28.093Z,20.89
2022-12-25T04:29:32.354Z,20.91
2022-12-25T04:30:36.625Z,20.92
2022-12-25T04:31:41.004Z,20.93
2022-12-25T04:32:46.598Z,20.87
2022-12-25T04:33:51.160Z,20.88
2022-12-25T04:34:55.414Z,20.93
2022-12-25T04:35:59.749Z,20.91
2022-12-25T04:37:04.005Z,20.93
2022-12-25T04:38:08.259Z,20.88
2022-12-25T04:39:12.539Z,20.86
2022-12-25T04:40:16.834Z,20.82
2022-12-25T04:41:21.072Z,20.82
2022-12-25T04:42:25.314Z,20.81
2022-12-25T04:43:29.588Z,20.81
2022-12-25T04:44:33.847Z,20.86
2022-12-25T04:45:38.122Z,20.86
2022-12-25T04:46:42.368Z,20.85
2022-12-25T04:47:46.929Z,20.88
2022-12-25T04:48:51.237Z,20.83
2022-12-25T04:49:55.544Z,20.88
2022-12-25T04:50:59.842Z,20.88
2022-12-25T04:52:04.116Z,20.86
2022-12-25T04:53:08.430Z,20.85
2022-12-25T04:54:12.668Z,20.83
2022-12-25T04:55:16.942Z,20.79
2022-12-25T04:56:21.254Z,20.81
2022-12-25T04:57:25.566Z,20.79
2022-12-25T04:58:29.838Z,20.78
2022-12-25T04:59:34.109Z,20.85
2022-12-25T05:00:38.345Z,20.88
2022-12-25T05:01:42.696Z,20.84
2022-12-25T05:02:47.393Z,20.82
2022-12-25T05:03:52.169Z,20.84
2022-12-25T05:04:59.297Z,20.84
2022-12-25T05:06:03.780Z,20.9
2022-12-25T05:07:08.015Z,20.98
2022-12-25T05:08:12.264Z,21.05
2022-12-25T05:09:16.556Z,21.11
2022-12-25T05:10:20.837Z,21.2
2022-12-25T05:11:25.101Z,21.3
2022-12-25T05:12:29.340Z,21.41
2022-12-25T05:13:33.632Z,21.49
2022-12-25T05:14:37.953Z,21.56
2022-12-25T05:15:42.251Z,21.65
2022-12-25T05:16:46.725Z,21.69
2022-12-25T05:17:51.016Z,21.73
2022-12-25T05:18:55.277Z,21.78
2022-12-25T05:19:59.557Z,21.82
2022-12-25T05:21:03.884Z,21.83
2022-12-25T05:22:08.165Z,21.86
2022-12-25T05:23:12.449Z,21.86
2022-12-25T05:24:16.725Z,21.88
2022-12-25T05:25:20.979Z,21.9
2022-12-25T05:26:25.227Z,21.93
2022-12-25T05:27:29.480Z,21.93
2022-12-25T05:28:33.801Z,21.94
2022-12-25T05:29:38.070Z,21.95
2022-12-25T05:30:42.343Z,22
2022-12-25T05:31:46.573Z,22.06
2022-12-25T05:32:51.115Z,22.08
2022-12-25T05:33:55.425Z,22.09
2022-12-25T05:34:59.701Z,22.11
2022-12-25T05:36:04.029Z,22.13
2022-12-25T05:37:09.294Z,22.14
2022-12-25T05:38:13.557Z,22.13
2022-12-25T05:39:17.844Z,22.15
2022-12-25T05:40:22.098Z,22.17
2022-12-25T05:41:30.695Z,22.18
2022-12-25T05:42:38.405Z,22.19
2022-12-25T05:43:42.821Z,22.19
2022-12-25T05:44:47.121Z,22.22
2022-12-25T05:45:51.378Z,22.21
2022-12-25T05:46:55.803Z,22.22
2022-12-25T05:48:00.189Z,22.23
2022-12-25T05:49:04.478Z,22.22
2022-12-25T05:50:11.253Z,22.22
2022-12-25T05:51:15.539Z,22.23
2022-12-25T05:52:19.785Z,22.24
2022-12-25T05:53:24.038Z,22.24
2022-12-25T05:54:28.322Z,22.24
2022-12-25T05:55:32.605Z,22.24
2022-12-25T05:56:36.869Z,22.25
2022-12-25T05:57:41.129Z,22.25
2022-12-25T05:58:45.675Z,22.26
2022-12-25T05:59:50.026Z,22.26
2022-12-25T06:00:54.263Z,22.27
2022-12-25T06:01:58.682Z,22.31
2022-12-25T06:03:03.492Z,22.32
2022-12-25T06:04:12.347Z,22.31
2022-12-25T06:05:17.126Z,22.33
2022-12-25T06:06:21.385Z,22.35
2022-12-25T06:07:25.642Z,22.35
2022-12-25T06:08:29.982Z,22.36
2022-12-25T06:09:34.237Z,22.37
2022-12-25T06:10:38.498Z,22.35
2022-12-25T06:11:42.754Z,22.38
2022-12-25T06:12:47.006Z,22.36
2022-12-25T06:13:51.279Z,22.37
2022-12-25T06:14:55.567Z,22.39
2022-12-25T06:15:59.872Z,22.39
2022-12-25T06:17:04.348Z,22.39
2022-12-25T06:18:08.832Z,22.41
2022-12-25T06:19:13.103Z,22.41
2022-12-25T06:20:17.695Z,22.41
2022-12-25T06:21:21.973Z,22.41
2022-12-25T06:22:26.222Z,22.42
2022-12-25T06:23:30.767Z,22.41
2022-12-25T06:24:35.281Z,22.41
2022-12-25T06:25:39.534Z,22.4
2022-12-25T06:26:43.775Z,22.39
2022-12-25T06:27:48.028Z,22.38
2022-12-25T06:28:52.296Z,22.36
2022-12-25T06:29:56.565Z,22.34
2022-12-25T06:31:00.805Z,22.32
2022-12-25T06:32:05.095Z,22.31
2022-12-25T06:33:09.704Z,22.29
2022-12-25T06:34:13.965Z,22.26
2022-12-25T06:35:18.249Z,22.26
2022-12-25T06:36:22.493Z,22.25
2022-12-25T06:37:26.739Z,22.24
2022-12-25T06:38:31.126Z,22.23
2022-12-25T06:39:35.413Z,22.2
2022-12-25T06:40:39.681Z,22.2
2022-12-25T06:41:43.976Z,22.18
2022-12-25T06:42:48.244Z,22.17
2022-12-25T06:43:52.516Z,22.16
2022-12-25T06:44:56.814Z,22.17
2022-12-25T06:46:01.117Z,22.18
2022-12-25T06:47:05.559Z,22.19
2022-12-25T06:48:09.843Z,22.21
2022-12-25T06:49:14.126Z,22.22
2022-12-25T06:50:18.447Z,22.25
2022-12-25T06:51:22.694Z,22.3
2022-12-25T06:52:27.057Z,22.35
2022-12-25T06:53:37.265Z,22.38
2022-12-25T06:54:44.367Z,22.42
2022-12-25T06:55:48.654Z,22.43
2022-12-25T06:56:52.925Z,22.45
2022-12-25T06:57:57.205Z,22.48
2022-12-25T06:59:01.521Z,22.49
2022-12-25T07:00:05.775Z,22.51
2022-12-25T07:01:10.079Z,22.53
2022-12-25T07:02:14.611Z,22.53
2022-12-25T07:03:22.460Z,22.55
2022-12-25T07:04:26.923Z,22.55
2022-12-25T07:05:31.270Z,22.55
2022-12-25T07:06:35.557Z,22.53
2022-12-25T07:07:39.848Z,22.54
2022-12-25T07:08:44.111Z,22.52
2022-12-25T07:09:48.358Z,22.52
2022-12-25T07:10:52.675Z,22.49
2022-12-25T07:11:56.937Z,22.47
2022-12-25T07:13:01.196Z,22.46
2022-12-25T07:14:05.508Z,22.45
2022-12-25T07:15:09.740Z,22.41
2022-12-25T07:16:14.088Z,22.4
2022-12-25T07:17:18.669Z,22.36
2022-12-25T07:18:22.935Z,22.33
2022-12-25T07:19:27.504Z,22.31
2022-12-25T07:20:31.818Z,22.28
2022-12-25T07:21:36.084Z,22.27
2022-12-25T07:22:40.455Z,22.25
2022-12-25T07:23:44.693Z,22.23
2022-12-25T07:24:48.959Z,22.21
2022-12-25T07:25:53.265Z,22.19
2022-12-25T07:26:57.553Z,22.16
2022-12-25T07:28:01.832Z,22.15
2022-12-25T07:29:06.121Z,22.13
2022-12-25T07:30:10.434Z,22.1
2022-12-25T07:31:14.854Z,22.09
2022-12-25T07:32:19.365Z,22.07
2022-12-25T07:33:23.623Z,22.07
2022-12-25T07:34:27.887Z,22.05
2022-12-25T07:35:32.149Z,22.03
2022-12-25T07:36:36.456Z,22.02
2022-12-25T07:37:40.767Z,22.02
2022-12-25T07:38:45.017Z,22.02
2022-12-25T07:39:49.250Z,22.01
2022-12-25T07:40:53.624Z,22
2022-12-25T07:41:57.915Z,22.02
2022-12-25T07:43:03.299Z,22.04
2022-12-25T07:44:07.576Z,22.08
2022-12-25T07:45:11.884Z,22.13
2022-12-25T07:46:16.173Z,22.2
2022-12-25T07:47:20.680Z,22.26
2022-12-25T07:48:24.958Z,22.32
2022-12-25T07:49:29.244Z,22.38
2022-12-25T07:50:33.494Z,22.45
2022-12-25T07:51:37.756Z,22.47
2022-12-25T07:52:43.727Z,22.51
2022-12-25T07:53:48.226Z,22.52
2022-12-25T07:54:52.481Z,22.53
2022-12-25T07:55:56.727Z,22.55
2022-12-25T07:57:01.022Z,22.55
2022-12-25T07:58:06.929Z,22.57
2022-12-25T07:59:11.356Z,22.6
2022-12-25T08:00:15.644Z,22.66
2022-12-25T08:01:20.277Z,22.67
2022-12-25T08:02:25.657Z,22.7
2022-12-25T08:03:31.540Z,22.69
2022-12-25T08:04:36.700Z,22.7
2022-12-25T08:05:40.976Z,22.7
2022-12-25T08:06:45.238Z,22.72
2022-12-25T08:07:53.871Z,22.71
2022-12-25T08:09:01.731Z,22.67
2022-12-25T08:10:06.050Z,22.67
2022-12-25T08:11:10.414Z,22.68
2022-12-25T08:12:14.682Z,22.64
2022-12-25T08:13:18.940Z,22.64
2022-12-25T08:14:23.212Z,22.61
2022-12-25T08:15:27.459Z,22.59
2022-12-25T08:16:31.766Z,22.6
2022-12-25T08:17:36.503Z,22.62
2022-12-25T08:18:40.771Z,22.68
2022-12-25T08:19:45.014Z,22.67
2022-12-25T08:20:49.353Z,22.62
2022-12-25T08:21:53.600Z,22.58
2022-12-25T08:22:57.857Z,22.53
2022-12-25T08:24:02.113Z,22.51
2022-12-25T08:25:06.508Z,22.47
2022-12-25T08:26:10.761Z,22.44
2022-12-25T08:27:15.023Z,22.41
2022-12-25T08:28:19.266Z,22.39
2022-12-25T08:29:23.541Z,22.36
2022-12-25T08:30:27.809Z,22.35
2022-12-25T08:31:32.368Z,22.3
2022-12-25T08:32:38.678Z,22.27
2022-12-25T08:33:42.942Z,22.25
2022-12-25T08:34:47.224Z,22.24
2022-12-25T08:35:51.480Z,22.21
2022-12-25T08:36:55.766Z,22.2
2022-12-25T08:38:00.015Z,22.19
2022-12-25T08:39:04.301Z,22.17
2022-12-25T08:40:08.621Z,22.15
2022-12-25T08:41:12.916Z,22.14
2022-12-25T08:42:17.205Z,22.11
2022-12-25T08:43:21.471Z,22.09
2022-12-25T08:44:25.715Z,22.09
2022-12-25T08:45:34.905Z,22.08
2022-12-25T08:46:39.540Z,22.05
2022-12-25T08:47:44.077Z,22.03
2022-12-25T08:48:48.361Z,22.02
2022-12-25T08:49:52.650Z,22.04
2022-12-25T08:50:57.575Z,22.04
2022-12-25T08:52:01.859Z,22.04
2022-12-25T08:53:06.170Z,22.07
2022-12-25T08:54:10.460Z,22.11
2022-12-25T08:55:14.702Z,22.16
2022-12-25T08:56:19.015Z,22.21
2022-12-25T08:57:23.329Z,22.27
2022-12-25T08:58:30.087Z,22.32
2022-12-25T08:59:34.394Z,22.37
2022-12-25T09:00:38.654Z,22.4
2022-12-25T09:01:43.251Z,22.44
2022-12-25T09:02:48.036Z,22.47
2022-12-25T09:03:52.836Z,22.5
2022-12-25T09:04:57.125Z,22.51
2022-12-25T09:06:01.382Z,22.53
2022-12-25T09:07:05.661Z,22.53
2022-12-25T09:08:09.927Z,22.56
2022-12-25T09:09:15.200Z,22.55
2022-12-25T09:10:19.498Z,22.58
2022-12-25T09:11:23.767Z,22.57
2022-12-25T09:12:28.036Z,22.57
2022-12-25T09:13:32.274Z,22.55
2022-12-25T09:14:36.540Z,22.55
2022-12-25T09:15:40.823Z,22.52
2022-12-25T09:16:45.273Z,22.5
2022-12-25T09:17:49.540Z,22.49
2022-12-25T09:18:53.785Z,22.47
2022-12-25T09:19:58.015Z,22.46
2022-12-25T09:21:02.277Z,22.43
2022-12-25T09:22:06.583Z,22.41
2022-12-25T09:23:13.919Z,22.41
2022-12-25T09:24:18.626Z,22.38
2022-12-25T09:25:22.868Z,22.36
2022-12-25T09:26:27.114Z,22.35
2022-12-25T09:27:31.385Z,22.33
2022-12-25T09:28:35.656Z,22.3
2022-12-25T09:29:39.896Z,22.28
2022-12-25T09:30:44.239Z,22.26
2022-12-25T09:31:48.663Z,22.24
2022-12-25T09:32:52.914Z,22.21
2022-12-25T09:33:57.206Z,22.2
2022-12-25T09:35:01.474Z,22.18
2022-12-25T09:36:05.773Z,22.17
2022-12-25T09:37:12.367Z,22.16
2022-12-25T09:38:16.630Z,22.15
2022-12-25T09:39:20.870Z,22.13
2022-12-25T09:40:25.167Z,22.12
2022-12-25T09:41:29.432Z,22.1
2022-12-25T09:42:33.747Z,22.09
2022-12-25T09:43:38.107Z,22.08
2022-12-25T09:44:42.365Z,22.08
2022-12-25T09:45:46.656Z,22.06
2022-12-25T09:46:51.118Z,22.04
2022-12-25T09:47:55.645Z,22.03
2022-12-25T09:48:59.946Z,22.03
2022-12-25T09:50:04.230Z,22.01
2022-12-25T09:51:08.526Z,21.99
2022-12-25T09:52:12.784Z,21.98
2022-12-25T09:53:17.028Z,21.96
2022-12-25T09:54:21.276Z,21.94
2022-12-25T09:55:25.587Z,21.94
2022-12-25T09:56:29.920Z,21.93
2022-12-25T09:57:34.175Z,21.93
2022-12-25T09:58:38.421Z,21.93
2022-12-25T09:59:42.681Z,21.91
2022-12-25T10:00:46.927Z,21.88
2022-12-25T10:01:51.282Z,21.88
2022-12-25T10:02:56.182Z,21.87
2022-12-25T10:04:01.345Z,21.87
2022-12-25T10:05:05.579Z,21.89
2022-12-25T10:06:09.851Z,21.91
2022-12-25T10:07:14.186Z,21.97
2022-12-25T10:08:18.526Z,22.01
2022-12-25T10:09:22.784Z,22.06
2022-12-25T10:10:27.016Z,22.13
2022-12-25T10:11:31.267Z,22.18
2022-12-25T10:12:35.580Z,22.23
2022-12-25T10:13:39.841Z,22.3
2022-12-25T10:14:44.125Z,22.33
2022-12-25T10:15:48.439Z,22.36
2022-12-25T10:16:52.799Z,22.4
2022-12-25T10:17:57.051Z,22.42
2022-12-25T10:19:01.301Z,22.42
2022-12-25T10:20:05.598Z,22.41
2022-12-25T10:21:13.130Z,22.42
2022-12-25T10:22:17.609Z,22.4
2022-12-25T10:23:21.916Z,22.4
2022-12-25T10:24:26.197Z,22.37
2022-12-25T10:25:30.476Z,22.35
2022-12-25T10:26:34.733Z,22.32
2022-12-25T10:27:39.226Z,22.31
2022-12-25T10:28:43.469Z,22.28
2022-12-25T10:29:47.760Z,22.27
2022-12-25T10:30:52.065Z,22.25
2022-12-25T10:31:56.419Z,22.23
2022-12-25T10:33:00.677Z,22.22
2022-12-25T10:34:04.984Z,22.2
2022-12-25T10:35:09.270Z,22.2
2022-12-25T10:36:13.535Z,22.18
2022-12-25T10:37:17.803Z,22.16
2022-12-25T10:38:22.035Z,22.15
2022-12-25T10:39:26.311Z,22.13
2022-12-25T10:40:30.592Z,22.12
2022-12-25T10:41:34.908Z,22.1
2022-12-25T10:42:39.183Z,22.09
2022-12-25T10:43:45.842Z,22.08
2022-12-25T10:44:50.111Z,22.07
2022-12-25T10:45:54.371Z,22.05
2022-12-25T10:46:58.914Z,22.03
2022-12-25T10:48:07.048Z,22.02
2022-12-25T10:49:11.648Z,22.01
2022-12-25T10:50:15.923Z,22
2022-12-25T10:51:20.308Z,21.99
2022-12-25T10:52:24.550Z,21.98
2022-12-25T10:53:29.086Z,21.97
2022-12-25T10:54:33.375Z,21.94
2022-12-25T10:55:37.645Z,21.94
2022-12-25T10:56:42.057Z,21.93
2022-12-25T10:57:46.301Z,21.91
2022-12-25T10:58:50.618Z,21.91
2022-12-25T10:59:54.864Z,21.89
2022-12-25T11:00:59.174Z,21.89
2022-12-25T11:02:03.518Z,21.88
2022-12-25T11:03:08.262Z,21.86
2022-12-25T11:04:13.255Z,21.86
2022-12-25T11:05:17.883Z,21.84
2022-12-25T11:06:22.154Z,21.84
2022-12-25T11:07:26.472Z,21.83
2022-12-25T11:08:30.722Z,21.84
2022-12-25T11:09:35.027Z,21.84
2022-12-25T11:10:39.320Z,21.82
2022-12-25T11:11:43.599Z,21.82
2022-12-25T11:12:47.833Z,21.81
2022-12-25T11:13:52.151Z,21.8
2022-12-25T11:14:56.462Z,21.81
2022-12-25T11:16:00.749Z,21.81
2022-12-25T11:17:05.319Z,21.82
2022-12-25T11:18:09.605Z,21.79
2022-12-25T11:19:13.861Z,21.79
2022-12-25T11:20:18.157Z,21.79
2022-12-25T11:21:22.473Z,21.84
2022-12-25T11:22:26.728Z,21.87
2022-12-25T11:23:30.973Z,21.91
2022-12-25T11:24:35.259Z,21.94
2022-12-25T11:25:39.530Z,21.97
2022-12-25T11:26:43.821Z,22
2022-12-25T11:27:51.917Z,22.06
2022-12-25T11:28:57.734Z,22.14
2022-12-25T11:30:02.021Z,22.22
2022-12-25T11:31:06.337Z,22.32
2022-12-25T11:32:10.855Z,22.4
2022-12-25T11:33:15.236Z,22.47
2022-12-25T11:34:19.486Z,22.55
2022-12-25T11:35:23.744Z,22.63
2022-12-25T11:36:27.987Z,22.68
2022-12-25T11:37:33.363Z,22.73
2022-12-25T11:38:37.633Z,22.76
2022-12-25T11:39:41.898Z,22.78
2022-12-25T11:40:46.171Z,22.82
2022-12-25T11:41:50.509Z,22.83
2022-12-25T11:42:54.803Z,22.78
2022-12-25T11:44:01.463Z,22.74
2022-12-25T11:45:05.738Z,22.71
2022-12-25T11:46:09.994Z,22.66
2022-12-25T11:47:14.386Z,22.65
2022-12-25T11:48:18.671Z,22.62
2022-12-25T11:49:22.946Z,22.6
2022-12-25T11:50:27.217Z,22.57
2022-12-25T11:51:31.492Z,22.55
2022-12-25T11:52:35.764Z,22.52
2022-12-25T11:53:40.061Z,22.52
2022-12-25T11:54:44.331Z,22.5
2022-12-25T11:55:48.698Z,22.49
2022-12-25T11:56:52.970Z,22.47
2022-12-25T11:57:57.222Z,22.46
2022-12-25T11:59:01.475Z,22.46
2022-12-25T12:00:05.745Z,22.45
2022-12-25T12:01:10.240Z,22.46
2022-12-25T12:02:14.613Z,22.43
2022-12-25T12:03:19.436Z,22.43
2022-12-25T12:04:29.187Z,22.44
2022-12-25T12:05:45.279Z,22.42
2022-12-25T12:06:49.547Z,22.4
2022-12-25T12:07:53.778Z,22.39
2022-12-25T12:08:58.050Z,22.4
2022-12-25T12:10:02.314Z,22.37
2022-12-25T12:11:06.705Z,22.36
2022-12-25T12:12:10.998Z,22.35
2022-12-25T12:13:15.261Z,22.32
2022-12-25T12:14:19.485Z,22.32
2022-12-25T12:15:23.782Z,22.31
2022-12-25T12:16:28.092Z,22.3
2022-12-25T12:17:32.637Z,22.31
2022-12-25T12:18:36.935Z,22.31
2022-12-25T12:19:41.200Z,22.32
2022-12-25T12:20:45.448Z,22.29
2022-12-25T12:21:49.753Z,22.29
2022-12-25T12:22:54.032Z,22.27
2022-12-25T12:23:58.321Z,22.26
2022-12-25T12:25:02.606Z,22.27
2022-12-25T12:26:06.878Z,22.27
2022-12-25T12:27:11.144Z,22.29
2022-12-25T12:28:15.528Z,22.38
2022-12-25T12:29:19.813Z,22.38
2022-12-25T12:30:24.087Z,22.36
2022-12-25T12:31:28.361Z,22.34
2022-12-25T12:32:32.824Z,22.31
2022-12-25T12:33:37.085Z,22.3
2022-12-25T12:34:41.362Z,22.3
2022-12-25T12:35:45.706Z,22.27
2022-12-25T12:36:49.959Z,22.31
2022-12-25T12:37:54.222Z,22.29
2022-12-25T12:38:58.620Z,22.3
2022-12-25T12:40:02.957Z,22.31
2022-12-25T12:41:07.223Z,22.31
2022-12-25T12:42:11.465Z,22.32
2022-12-25T12:43:15.727Z,22.31
2022-12-25T12:44:20.033Z,22.32
2022-12-25T12:45:24.319Z,22.33
2022-12-25T12:46:31.188Z,22.32
2022-12-25T12:47:35.990Z,22.31
2022-12-25T12:48:40.283Z,22.31
2022-12-25T12:49:44.575Z,22.31
2022-12-25T12:50:48.819Z,22.29
2022-12-25T12:51:53.112Z,22.28
2022-12-25T12:52:57.387Z,22.29
2022-12-25T12:54:02.648Z,22.28
2022-12-25T12:55:06.983Z,22.27
2022-12-25T12:56:11.290Z,22.26
2022-12-25T12:57:15.549Z,22.28
2022-12-25T12:58:19.795Z,22.25
2022-12-25T12:59:24.050Z,22.25
2022-12-25T13:00:28.339Z,22.25
2022-12-25T13:01:32.716Z,22.24
2022-12-25T13:02:37.750Z,22.25
2022-12-25T13:03:42.422Z,22.26
2022-12-25T13:04:46.712Z,22.25
2022-12-25T13:05:51.017Z,22.25
2022-12-25T13:06:55.312Z,22.25
2022-12-25T13:07:59.605Z,22.23
2022-12-25T13:09:04.004Z,22.24
2022-12-25T13:10:08.319Z,22.23
2022-12-25T13:11:12.885Z,22.21
2022-12-25T13:12:17.126Z,22.19
2022-12-25T13:13:21.377Z,22.19
2022-12-25T13:14:25.703Z,22.19
2022-12-25T13:15:29.942Z,22.19
2022-12-25T13:16:34.228Z,22.19
2022-12-25T13:17:38.631Z,22.19
2022-12-25T13:18:42.862Z,22.19
2022-12-25T13:19:47.161Z,22.22
2022-12-25T13:20:51.399Z,22.19
2022-12-25T13:21:55.670Z,22.18
2022-12-25T13:22:59.963Z,22.14
2022-12-25T13:24:04.209Z,22.13
2022-12-25T13:25:08.489Z,22.14
2022-12-25T13:26:12.937Z,22.12
2022-12-25T13:27:17.197Z,22.11
2022-12-25T13:28:21.445Z,22.12
2022-12-25T13:29:25.682Z,22.1
2022-12-25T13:30:29.954Z,22.11
2022-12-25T13:31:34.245Z,22.1
2022-12-25T13:32:38.624Z,22.13
2022-12-25T13:33:43.029Z,22.11
2022-12-25T13:34:47.271Z,22.11
2022-12-25T13:35:51.531Z,22.1
2022-12-25T13:36:55.857Z,22.11
2022-12-25T13:38:00.119Z,22.11
2022-12-25T13:39:04.372Z,22.09
2022-12-25T13:40:08.635Z,22.05
2022-12-25T13:41:12.998Z,22
2022-12-25T13:42:17.280Z,22
2022-12-25T13:43:21.530Z,21.96
2022-12-25T13:44:25.788Z,21.94
2022-12-25T13:45:30.117Z,21.93
2022-12-25T13:46:34.729Z,21.94
2022-12-25T13:47:38.998Z,21.93
2022-12-25T13:48:43.254Z,21.92
2022-12-25T13:49:47.504Z,21.92
2022-12-25T13:50:51.762Z,21.92
2022-12-25T13:51:56.010Z,21.94
2022-12-25T13:53:00.272Z,21.91
2022-12-25T13:54:04.520Z,21.9